sensor_id;sensor_type;location;lat;lon;timestamp;pressure;altitude;pressure_sealevel;temperature;humidity
61757;BME280;57225;61.460;24.060;2022-08-19T00:01:18;100374.50;;;19.36;100.00
61757;BME280;57225;61.460;24.060;2022-08-19T00:04:06;100376.72;;;19.41;100.00
61757;BME280;57225;61.460;24.060;2022-08-19T00:06:51;100385.22;;;19.41;100.00
61757;BME280;57225;61.460;24.060;2022-08-19T00:09:35;100381.38;;;19.35;100.00
61757;BME280;57225;61.460;24.060;2022-08-19T00:12:20;100388.84;;;19.42;100.00
61757;BME280;57225;61.460;24.060;2022-08-19T00:15:07;100382.97;;;19.36;100.00
61757;BME280;57225;61.460;24.060;2022-08-19T00:17:55;100380.84;;;19.40;100.00
61757;BME280;57225;61.460;24.060;2022-08-19T00:20:39;100380.84;;;19.40;100.00
61757;BME280;57225;61.460;24.060;2022-08-19T00:23:24;100380.50;;;19.38;100.00
61757;BME280;57225;61.460;24.060;2022-08-19T00:26:10;100378.31;;;19.42;100.00
61757;BME280;57225;61.460;24.060;2022-08-19T00:28:54;100374.25;;;19.43;100.00
61757;BME280;57225;61.460;24.060;2022-08-19T00:31:40;100367.59;;;19.50;100.00
61757;BME280;57225;61.460;24.060;2022-08-19T00:34:26;100375.03;;;19.56;100.00
61757;BME280;57225;61.460;24.060;2022-08-19T00:37:14;100375.66;;;19.60;100.00
61757;BME280;57225;61.460;24.060;2022-08-19T00:39:58;100378.13;;;19.71;100.00
61757;BME280;57225;61.460;24.060;2022-08-19T00:42:43;100383.66;;;19.75;100.00
61757;BME280;57225;61.460;24.060;2022-08-19T00:45:28;100388.16;;;19.85;100.00
61757;BME280;57225;61.460;24.060;2022-08-19T00:48:21;100388.78;;;19.89;100.00
61757;BME280;57225;61.460;24.060;2022-08-19T00:51:05;100389.59;;;19.89;100.00
61757;BME280;57225;61.460;24.060;2022-08-19T00:53:50;100388.66;;;19.92;100.00
61757;BME280;57225;61.460;24.060;2022-08-19T00:56:35;100393.06;;;19.93;100.00
61757;BME280;57225;61.460;24.060;2022-08-19T00:59:20;100392.00;;;20.00;100.00
61757;BME280;57225;61.460;24.060;2022-08-19T01:02:04;100393.75;;;19.97;100.00
61757;BME280;57225;61.460;24.060;2022-08-19T01:04:49;100395.97;;;20.02;100.00
61757;BME280;57225;61.460;24.060;2022-08-19T01:07:34;100393.94;;;20.03;100.00
61757;BME280;57225;61.460;24.060;2022-08-19T01:10:22;100394.56;;;20.07;100.00
61757;BME280;57225;61.460;24.060;2022-08-19T01:13:07;100393.59;;;20.01;100.00
61757;BME280;57225;61.460;24.060;2022-08-19T01:15:56;100395.50;;;20.04;100.00
61757;BME280;57225;61.460;24.060;2022-08-19T01:18:42;100392.34;;;20.02;100.00
61757;BME280;57225;61.460;24.060;2022-08-19T01:21:52;100398.34;;;20.04;100.00
61757;BME280;57225;61.460;24.060;2022-08-19T01:24:37;100393.66;;;20.10;100.00
61757;BME280;57225;61.460;24.060;2022-08-19T01:27:22;100396.50;;;20.10;100.00
61757;BME280;57225;61.460;24.060;2022-08-19T01:30:07;100405.09;;;20.06;100.00
61757;BME280;57225;61.460;24.060;2022-08-19T01:32:53;100397.66;;;20.00;100.00
61757;BME280;57225;61.460;24.060;2022-08-19T01:35:37;100411.34;;;20.01;100.00
61757;BME280;57225;61.460;24.060;2022-08-19T01:38:25;100395.50;;;20.04;100.00
61757;BME280;57225;61.460;24.060;2022-08-19T01:41:12;100406.59;;;19.98;100.00
61757;BME280;57225;61.460;24.060;2022-08-19T01:43:57;100416.69;;;19.99;100.00
61757;BME280;57225;61.460;24.060;2022-08-19T01:46:43;100412.00;;;20.05;100.00
61757;BME280;57225;61.460;24.060;2022-08-19T01:49:28;100415.63;;;20.06;100.00
61757;BME280;57225;61.460;24.060;2022-08-19T01:52:12;100423.47;;;20.02;100.00
61757;BME280;57225;61.460;24.060;2022-08-19T01:54:56;100425.50;;;20.01;100.00
61757;BME280;57225;61.460;24.060;2022-08-19T01:57:43;100426.94;;;20.06;100.00
61757;BME280;57225;61.460;24.060;2022-08-19T02:00:30;100425.38;;;20.05;100.00
61757;BME280;57225;61.460;24.060;2022-08-19T02:03:15;100421.28;;;20.06;100.00
61757;BME280;57225;61.460;24.060;2022-08-19T02:06:02;100431.31;;;19.98;100.00
61757;BME280;57225;61.460;24.060;2022-08-19T02:08:47;100417.03;;;20.01;100.00
61757;BME280;57225;61.460;24.060;2022-08-19T02:11:34;100418.72;;;19.99;100.00
61757;BME280;57225;61.460;24.060;2022-08-19T02:14:19;100416.69;;;19.99;100.00
61757;BME280;57225;61.460;24.060;2022-08-19T02:17:03;100403.78;;;19.98;100.00
61757;BME280;57225;61.460;24.060;2022-08-19T02:19:48;100404.84;;;19.92;100.00
61757;BME280;57225;61.460;24.060;2022-08-19T02:22:33;100403.13;;;19.94;100.00
61757;BME280;57225;61.460;24.060;2022-08-19T02:25:17;100409.13;;;19.96;100.00
61757;BME280;57225;61.460;24.060;2022-08-19T02:28:02;100410.81;;;19.94;100.00
61757;BME280;57225;61.460;24.060;2022-08-19T02:30:47;100413.53;;;19.97;100.00
61757;BME280;57225;61.460;24.060;2022-08-19T02:33:32;100414.09;;;19.92;100.00
61757;BME280;57225;61.460;24.060;2022-08-19T02:36:17;100416.03;;;19.95;100.00
61757;BME280;57225;61.460;24.060;2022-08-19T02:39:00;100418.53;;;19.93;100.00
61757;BME280;57225;61.460;24.060;2022-08-19T02:41:45;100416.16;;;19.92;100.00
61757;BME280;57225;61.460;24.060;2022-08-19T02:44:29;100420.31;;;20.00;100.00
61757;BME280;57225;61.460;24.060;2022-08-19T02:47:13;100412.41;;;19.95;99.87
61757;BME280;57225;61.460;24.060;2022-08-19T02:50:00;100425.66;;;19.98;100.00
61757;BME280;57225;61.460;24.060;2022-08-19T02:52:45;100419.66;;;19.96;100.00
61757;BME280;57225;61.460;24.060;2022-08-19T02:55:29;100414.97;;;20.02;99.70
61757;BME280;57225;61.460;24.060;2022-08-19T02:58:14;100416.88;;;20.05;98.99
61757;BME280;57225;61.460;24.060;2022-08-19T03:00:59;100410.22;;;19.99;99.42
61757;BME280;57225;61.460;24.060;2022-08-19T03:03:43;100406.16;;;20.00;99.31
61757;BME280;57225;61.460;24.060;2022-08-19T03:06:28;100407.59;;;20.04;99.17
61757;BME280;57225;61.460;24.060;2022-08-19T03:09:13;100407.47;;;20.08;99.10
61757;BME280;57225;61.460;24.060;2022-08-19T03:11:58;100409.06;;;20.09;99.09
61757;BME280;57225;61.460;24.060;2022-08-19T03:14:42;100400.22;;;20.07;99.01
61757;BME280;57225;61.460;24.060;2022-08-19T03:17:26;100399.63;;;20.12;99.02
61757;BME280;57225;61.460;24.060;2022-08-19T03:20:10;100408.31;;;20.18;98.67
61757;BME280;57225;61.460;24.060;2022-08-19T03:22:55;100389.28;;;20.18;98.15
61757;BME280;57225;61.460;24.060;2022-08-19T03:25:41;100410.75;;;20.28;97.45
61757;BME280;57225;61.460;24.060;2022-08-19T03:28:27;100414.59;;;20.34;97.15
61757;BME280;57225;61.460;24.060;2022-08-19T03:31:13;100409.56;;;20.38;97.27
61757;BME280;57225;61.460;24.060;2022-08-19T03:33:57;100408.38;;;20.49;96.31
61757;BME280;57225;61.460;24.060;2022-08-19T03:36:42;100414.69;;;20.53;96.52
61757;BME280;57225;61.460;24.060;2022-08-19T03:39:26;100417.88;;;20.64;96.13
61757;BME280;57225;61.460;24.060;2022-08-19T03:42:11;100414.13;;;20.67;95.87
61757;BME280;57225;61.460;24.060;2022-08-19T03:44:56;100419.81;;;20.76;94.77
61757;BME280;57225;61.460;24.060;2022-08-19T03:47:40;100420.50;;;20.80;94.28
61757;BME280;57225;61.460;24.060;2022-08-19T03:50:24;100415.59;;;20.80;94.53
61757;BME280;57225;61.460;24.060;2022-08-19T03:53:09;100428.66;;;20.78;94.49
61757;BME280;57225;61.460;24.060;2022-08-19T03:55:56;100424.88;;;20.81;94.93
61757;BME280;57225;61.460;24.060;2022-08-19T03:58:44;100428.38;;;20.94;94.87
61757;BME280;57225;61.460;24.060;2022-08-19T04:01:29;100431.56;;;20.96;94.45
61757;BME280;57225;61.460;24.060;2022-08-19T04:04:13;100448.28;;;21.03;94.04
61757;BME280;57225;61.460;24.060;2022-08-19T04:06:57;100487.66;;;21.10;93.97
61757;BME280;57225;61.460;24.060;2022-08-19T04:09:42;100491.53;;;21.25;93.00
61757;BME280;57225;61.460;24.060;2022-08-19T04:12:27;100483.69;;;21.39;91.82
61757;BME280;57225;61.460;24.060;2022-08-19T04:15:11;100493.28;;;21.32;92.57
61757;BME280;57225;61.460;24.060;2022-08-19T04:17:55;100475.03;;;21.42;92.46
61757;BME280;57225;61.460;24.060;2022-08-19T04:20:46;100476.44;;;21.38;93.16
61757;BME280;57225;61.460;24.060;2022-08-19T04:23:31;100481.50;;;21.43;93.03
61757;BME280;57225;61.460;24.060;2022-08-19T04:26:21;100473.28;;;21.45;92.66
61757;BME280;57225;61.460;24.060;2022-08-19T04:29:13;100468.91;;;21.53;91.99
61757;BME280;57225;61.460;24.060;2022-08-19T04:31:58;100479.63;;;21.58;90.26
61757;BME280;57225;61.460;24.060;2022-08-19T04:34:43;100468.13;;;21.52;91.80
61757;BME280;57225;61.460;24.060;2022-08-19T04:37:27;100472.66;;;21.50;91.94
61757;BME280;57225;61.460;24.060;2022-08-19T04:40:16;100476.31;;;21.50;92.34
61757;BME280;57225;61.460;24.060;2022-08-19T04:43:19;100479.63;;;21.58;92.55
61757;BME280;57225;61.460;24.060;2022-08-19T04:46:05;100467.66;;;21.63;92.37
61757;BME280;57225;61.460;24.060;2022-08-19T04:48:50;100469.88;;;21.68;92.12
61757;BME280;57225;61.460;24.060;2022-08-19T04:51:35;100477.81;;;22.10;89.58
61757;BME280;57225;61.460;24.060;2022-08-19T04:54:22;100477.47;;;22.35;85.77
61757;BME280;57225;61.460;24.060;2022-08-19T04:57:08;100473.34;;;22.45;85.38
61757;BME280;57225;61.460;24.060;2022-08-19T04:59:55;100477.09;;;22.60;85.20
61757;BME280;57225;61.460;24.060;2022-08-19T05:02:39;100468.72;;;23.17;82.67
61757;BME280;57225;61.460;24.060;2022-08-19T05:05:24;100488.19;;;24.28;77.60
61757;BME280;57225;61.460;24.060;2022-08-19T05:08:08;100489.59;;;25.76;69.95
61757;BME280;57225;61.460;24.060;2022-08-19T05:10:52;100503.88;;;27.26;63.41
61757;BME280;57225;61.460;24.060;2022-08-19T05:13:37;100508.19;;;28.71;59.77
61757;BME280;57225;61.460;24.060;2022-08-19T05:16:22;100501.16;;;29.50;54.98
61757;BME280;57225;61.460;24.060;2022-08-19T05:19:07;100510.66;;;30.08;53.31
61757;BME280;57225;61.460;24.060;2022-08-19T05:22:10;100510.44;;;30.01;52.62
61757;BME280;57225;61.460;24.060;2022-08-19T05:25:16;100511.94;;;30.13;52.96
61757;BME280;57225;61.460;24.060;2022-08-19T05:28:02;100512.75;;;30.08;52.56
61757;BME280;57225;61.460;24.060;2022-08-19T05:30:47;100517.59;;;29.72;53.49
61757;BME280;57225;61.460;24.060;2022-08-19T05:33:32;100512.19;;;29.01;55.43
61757;BME280;57225;61.460;24.060;2022-08-19T05:36:16;100514.13;;;28.39;57.19
61757;BME280;57225;61.460;24.060;2022-08-19T05:39:03;100504.88;;;28.08;59.05
61757;BME280;57225;61.460;24.060;2022-08-19T05:41:50;100518.97;;;27.57;60.51
61757;BME280;57225;61.460;24.060;2022-08-19T05:44:37;100512.28;;;26.98;62.97
61757;BME280;57225;61.460;24.060;2022-08-19T05:47:22;100505.56;;;26.49;64.44
61757;BME280;57225;61.460;24.060;2022-08-19T05:50:07;100507.31;;;25.80;66.95
61757;BME280;57225;61.460;24.060;2022-08-19T05:52:51;100496.47;;;25.14;69.71
61757;BME280;57225;61.460;24.060;2022-08-19T05:55:35;100496.69;;;24.67;72.21
61757;BME280;57225;61.460;24.060;2022-08-19T05:58:22;100497.06;;;24.45;73.86
61757;BME280;57225;61.460;24.060;2022-08-19T06:01:15;100502.84;;;24.21;75.88
61757;BME280;57225;61.460;24.060;2022-08-19T06:03:59;100485.47;;;24.10;76.46
61757;BME280;57225;61.460;24.060;2022-08-19T06:06:45;100490.16;;;24.22;77.05
61757;BME280;57225;61.460;24.060;2022-08-19T06:09:30;100490.66;;;24.21;76.80
61757;BME280;57225;61.460;24.060;2022-08-19T06:12:14;100498.53;;;24.26;75.05
61757;BME280;57225;61.460;24.060;2022-08-19T06:14:59;100496.19;;;24.39;75.78
61757;BME280;57225;61.460;24.060;2022-08-19T06:17:44;100496.47;;;24.41;74.53
61757;BME280;57225;61.460;24.060;2022-08-19T06:20:28;100487.75;;;24.44;75.82
61757;BME280;57225;61.460;24.060;2022-08-19T06:23:13;100492.66;;;24.59;73.34
61757;BME280;57225;61.460;24.060;2022-08-19T06:25:57;100491.56;;;24.41;74.66
61757;BME280;57225;61.460;24.060;2022-08-19T06:28:42;100496.09;;;24.48;74.93
61757;BME280;57225;61.460;24.060;2022-08-19T06:31:29;100502.00;;;24.44;74.17
61757;BME280;57225;61.460;24.060;2022-08-19T06:34:15;100495.88;;;24.37;73.21
61757;BME280;57225;61.460;24.060;2022-08-19T06:37:01;100502.53;;;24.19;75.12
61757;BME280;57225;61.460;24.060;2022-08-19T06:39:46;100508.59;;;24.12;74.65
61757;BME280;57225;61.460;24.060;2022-08-19T06:42:30;100496.22;;;24.15;75.51
61757;BME280;57225;61.460;24.060;2022-08-19T06:45:14;100506.59;;;24.42;76.13
61757;BME280;57225;61.460;24.060;2022-08-19T06:47:59;100502.00;;;24.74;75.83
61757;BME280;57225;61.460;24.060;2022-08-19T06:50:43;100505.84;;;24.71;72.39
61757;BME280;57225;61.460;24.060;2022-08-19T06:53:27;100505.75;;;24.95;71.70
61757;BME280;57225;61.460;24.060;2022-08-19T06:56:18;100490.59;;;25.03;72.00
61757;BME280;57225;61.460;24.060;2022-08-19T06:59:06;100507.50;;;25.21;72.22
61757;BME280;57225;61.460;24.060;2022-08-19T07:01:53;100497.28;;;25.00;71.50
61757;BME280;57225;61.460;24.060;2022-08-19T07:04:37;100499.03;;;25.12;71.17
61757;BME280;57225;61.460;24.060;2022-08-19T07:07:22;100503.72;;;25.30;70.78
61757;BME280;57225;61.460;24.060;2022-08-19T07:10:06;100499.53;;;25.46;70.18
61757;BME280;57225;61.460;24.060;2022-08-19T07:12:51;100499.91;;;25.53;69.91
61757;BME280;57225;61.460;24.060;2022-08-19T07:15:36;100504.91;;;25.73;69.98
61757;BME280;57225;61.460;24.060;2022-08-19T07:18:21;100501.09;;;26.02;68.64
61757;BME280;57225;61.460;24.060;2022-08-19T07:21:10;100508.59;;;26.40;66.30
61757;BME280;57225;61.460;24.060;2022-08-19T07:23:56;100500.75;;;26.61;66.20
61757;BME280;57225;61.460;24.060;2022-08-19T07:26:42;100510.00;;;27.07;64.04
61757;BME280;57225;61.460;24.060;2022-08-19T07:29:28;100500.00;;;27.60;62.14
61757;BME280;57225;61.460;24.060;2022-08-19T07:32:13;100506.88;;;27.79;63.13
61757;BME280;57225;61.460;24.060;2022-08-19T07:34:57;100511.63;;;27.93;61.05
61757;BME280;57225;61.460;24.060;2022-08-19T07:37:41;100514.38;;;28.19;61.36
61757;BME280;57225;61.460;24.060;2022-08-19T07:40:28;100504.50;;;28.37;59.66
61757;BME280;57225;61.460;24.060;2022-08-19T07:43:13;100511.84;;;27.90;60.61
61757;BME280;57225;61.460;24.060;2022-08-19T07:45:58;100510.63;;;28.08;61.14
61757;BME280;57225;61.460;24.060;2022-08-19T07:48:44;100514.22;;;27.91;61.78
61757;BME280;57225;61.460;24.060;2022-08-19T07:51:32;100516.44;;;27.71;61.19
61757;BME280;57225;61.460;24.060;2022-08-19T07:54:17;100505.41;;;27.52;61.98
61757;BME280;57225;61.460;24.060;2022-08-19T07:57:02;100507.28;;;27.24;63.08
61757;BME280;57225;61.460;24.060;2022-08-19T07:59:47;100503.31;;;27.16;63.43
61757;BME280;57225;61.460;24.060;2022-08-19T08:02:31;100506.09;;;27.42;62.20
61757;BME280;57225;61.460;24.060;2022-08-19T08:05:15;100505.78;;;27.77;62.50
61757;BME280;57225;61.460;24.060;2022-08-19T08:08:18;100510.28;;;27.89;60.78
61757;BME280;57225;61.460;24.060;2022-08-19T08:11:54;100511.06;;;27.89;61.27
61757;BME280;57225;61.460;24.060;2022-08-19T08:14:50;100498.81;;;27.89;61.78
61757;BME280;57225;61.460;24.060;2022-08-19T08:17:36;100510.28;;;27.89;61.29
61757;BME280;57225;61.460;24.060;2022-08-19T08:20:21;100505.59;;;27.86;61.53
61757;BME280;57225;61.460;24.060;2022-08-19T08:23:05;100515.28;;;27.94;61.59
61757;BME280;57225;61.460;24.060;2022-08-19T08:26:11;100498.91;;;28.11;60.45
61757;BME280;57225;61.460;24.060;2022-08-19T08:28:58;100505.25;;;28.26;59.13
61757;BME280;57225;61.460;24.060;2022-08-19T08:31:43;100501.66;;;28.48;58.77
61757;BME280;57225;61.460;24.060;2022-08-19T08:34:28;100502.19;;;28.58;58.62
61757;BME280;57225;61.460;24.060;2022-08-19T08:37:13;100503.22;;;28.55;57.91
61757;BME280;57225;61.460;24.060;2022-08-19T08:39:58;100500.41;;;28.77;56.94
61757;BME280;57225;61.460;24.060;2022-08-19T08:42:49;100503.03;;;28.86;57.08
61757;BME280;57225;61.460;24.060;2022-08-19T08:45:41;100504.06;;;29.05;56.43
61757;BME280;57225;61.460;24.060;2022-08-19T08:48:36;100506.69;;;28.98;55.62
61757;BME280;57225;61.460;24.060;2022-08-19T08:51:32;100504.59;;;28.76;55.94
61757;BME280;57225;61.460;24.060;2022-08-19T08:54:19;100502.44;;;28.43;55.08
61757;BME280;57225;61.460;24.060;2022-08-19T08:57:10;100509.44;;;28.25;57.08
61757;BME280;57225;61.460;24.060;2022-08-19T08:59:57;100496.38;;;28.24;56.51
61757;BME280;57225;61.460;24.060;2022-08-19T09:02:44;100506.78;;;28.16;55.81
61757;BME280;57225;61.460;24.060;2022-08-19T09:05:59;100509.31;;;28.03;56.12
61757;BME280;57225;61.460;24.060;2022-08-19T09:09:09;100505.78;;;28.30;55.95
61757;BME280;57225;61.460;24.060;2022-08-19T09:12:24;100493.78;;;28.26;55.56
61757;BME280;57225;61.460;24.060;2022-08-19T09:15:12;100502.63;;;28.28;55.18
61757;BME280;57225;61.460;24.060;2022-08-19T09:18:00;100495.41;;;28.50;55.72
61757;BME280;57225;61.460;24.060;2022-08-19T09:20:46;100492.84;;;28.96;55.18
61757;BME280;57225;61.460;24.060;2022-08-19T09:23:36;100502.94;;;29.75;54.77
61757;BME280;57225;61.460;24.060;2022-08-19T09:26:22;100495.16;;;30.28;49.98
61757;BME280;57225;61.460;24.060;2022-08-19T09:29:07;100490.00;;;30.56;48.54
61757;BME280;57225;61.460;24.060;2022-08-19T09:31:52;100500.69;;;30.61;48.04
61757;BME280;57225;61.460;24.060;2022-08-19T09:34:36;100493.06;;;30.99;49.21
61757;BME280;57225;61.460;24.060;2022-08-19T09:37:21;100490.41;;;31.07;48.70
61757;BME280;57225;61.460;24.060;2022-08-19T09:40:06;100496.41;;;30.73;47.80
61757;BME280;57225;61.460;24.060;2022-08-19T09:42:51;100485.66;;;30.38;48.32
61757;BME280;57225;61.460;24.060;2022-08-19T09:45:36;100497.84;;;30.15;49.72
61757;BME280;57225;61.460;24.060;2022-08-19T09:48:20;100490.63;;;30.38;50.68
61757;BME280;57225;61.460;24.060;2022-08-19T09:51:13;100488.22;;;30.53;48.88
61757;BME280;57225;61.460;24.060;2022-08-19T09:54:02;100497.69;;;30.37;48.76
61757;BME280;57225;61.460;24.060;2022-08-19T09:56:46;100493.88;;;30.18;49.18
61757;BME280;57225;61.460;24.060;2022-08-19T09:59:30;100496.09;;;29.78;49.34
61757;BME280;57225;61.460;24.060;2022-08-19T10:02:15;100503.78;;;29.59;50.43
61757;BME280;57225;61.460;24.060;2022-08-19T10:05:00;100497.25;;;29.58;50.48
61757;BME280;57225;61.460;24.060;2022-08-19T10:08:03;100487.00;;;29.74;49.54
61757;BME280;57225;61.460;24.060;2022-08-19T10:10:48;100486.75;;;29.67;50.47
61757;BME280;57225;61.460;24.060;2022-08-19T10:13:32;100488.38;;;29.51;50.13
61757;BME280;57225;61.460;24.060;2022-08-19T10:16:21;100487.34;;;29.26;51.94
61757;BME280;57225;61.460;24.060;2022-08-19T10:19:06;100491.53;;;29.14;50.48
61757;BME280;57225;61.460;24.060;2022-08-19T10:21:50;100485.81;;;29.08;51.83
61757;BME280;57225;61.460;24.060;2022-08-19T10:24:35;100485.78;;;29.19;51.47
61757;BME280;57225;61.460;24.060;2022-08-19T10:27:19;100480.81;;;29.37;51.03
61757;BME280;57225;61.460;24.060;2022-08-19T10:30:04;100490.75;;;29.36;50.25
61757;BME280;57225;61.460;24.060;2022-08-19T10:32:48;100485.00;;;29.25;50.26
61757;BME280;57225;61.460;24.060;2022-08-19T10:35:33;100486.06;;;29.27;50.53
61757;BME280;57225;61.460;24.060;2022-08-19T10:38:18;100481.34;;;28.96;51.40
61757;BME280;57225;61.460;24.060;2022-08-19T10:41:12;100481.63;;;28.82;52.37
61757;BME280;57225;61.460;24.060;2022-08-19T10:44:00;100478.97;;;28.72;52.50
61757;BME280;57225;61.460;24.060;2022-08-19T10:46:44;100481.84;;;28.56;52.62
61757;BME280;57225;61.460;24.060;2022-08-19T10:49:31;100475.31;;;28.50;52.93
61757;BME280;57225;61.460;24.060;2022-08-19T10:52:16;100481.34;;;28.68;52.73
61757;BME280;57225;61.460;24.060;2022-08-19T10:55:21;100482.94;;;29.08;52.69
61757;BME280;57225;61.460;24.060;2022-08-19T10:58:24;100479.44;;;29.60;50.23
61757;BME280;57225;61.460;24.060;2022-08-19T11:01:09;100478.72;;;29.48;50.83
61757;BME280;57225;61.460;24.060;2022-08-19T11:03:54;100472.56;;;29.85;48.25
61757;BME280;57225;61.460;24.060;2022-08-19T11:06:41;100470.59;;;30.21;48.22
61757;BME280;57225;61.460;24.060;2022-08-19T11:09:27;100462.25;;;30.18;48.93
61757;BME280;57225;61.460;24.060;2022-08-19T11:12:12;100475.38;;;30.08;48.23
61757;BME280;57225;61.460;24.060;2022-08-19T11:14:56;100471.41;;;30.16;47.78
61757;BME280;57225;61.460;24.060;2022-08-19T11:17:41;100465.16;;;30.12;48.15
61757;BME280;57225;61.460;24.060;2022-08-19T11:20:27;100469.13;;;30.04;48.58
61757;BME280;57225;61.460;24.060;2022-08-19T11:23:11;100470.22;;;29.89;48.02
61757;BME280;57225;61.460;24.060;2022-08-19T11:25:55;100468.44;;;29.75;48.17
61757;BME280;57225;61.460;24.060;2022-08-19T11:28:41;100471.69;;;29.27;48.20
61757;BME280;57225;61.460;24.060;2022-08-19T11:31:27;100468.56;;;29.19;48.73
61757;BME280;57225;61.460;24.060;2022-08-19T11:34:17;100461.00;;;29.05;49.23
61757;BME280;57225;61.460;24.060;2022-08-19T11:37:03;100462.31;;;29.04;50.86
61757;BME280;57225;61.460;24.060;2022-08-19T11:39:47;100453.72;;;28.93;50.87
61757;BME280;57225;61.460;24.060;2022-08-19T11:42:31;100458.69;;;28.93;50.60
61757;BME280;57225;61.460;24.060;2022-08-19T11:45:35;100451.66;;;28.83;51.50
61757;BME280;57225;61.460;24.060;2022-08-19T11:48:20;100442.47;;;29.17;50.78
61757;BME280;57225;61.460;24.060;2022-08-19T11:51:10;100446.59;;;29.28;50.58
61757;BME280;57225;61.460;24.060;2022-08-19T11:53:55;100440.09;;;29.22;50.53
61757;BME280;57225;61.460;24.060;2022-08-19T11:56:41;100444.00;;;29.24;50.33
61757;BME280;57225;61.460;24.060;2022-08-19T11:59:25;100427.06;;;29.15;50.75
61757;BME280;57225;61.460;24.060;2022-08-19T12:02:10;100428.38;;;29.19;50.20
61757;BME280;57225;61.460;24.060;2022-08-19T12:04:55;100423.94;;;29.18;50.68
61757;BME280;57225;61.460;24.060;2022-08-19T12:07:40;100429.38;;;29.28;50.44
61757;BME280;57225;61.460;24.060;2022-08-19T12:10:25;100419.63;;;29.64;50.51
61757;BME280;57225;61.460;24.060;2022-08-19T12:13:09;100417.47;;;29.81;49.42
61757;BME280;57225;61.460;24.060;2022-08-19T12:15:54;100418.84;;;29.64;48.94
61757;BME280;57225;61.460;24.060;2022-08-19T12:18:39;100422.34;;;29.40;49.71
61757;BME280;57225;61.460;24.060;2022-08-19T12:21:26;100431.25;;;29.19;49.55
61757;BME280;57225;61.460;24.060;2022-08-19T12:24:14;100431.25;;;29.19;50.23
61757;BME280;57225;61.460;24.060;2022-08-19T12:26:58;100428.59;;;29.44;50.31
61757;BME280;57225;61.460;24.060;2022-08-19T12:29:45;100427.44;;;29.69;50.38
61757;BME280;57225;61.460;24.060;2022-08-19T12:32:29;100430.19;;;30.03;48.90
61757;BME280;57225;61.460;24.060;2022-08-19T12:35:13;100431.13;;;30.22;49.16
61757;BME280;57225;61.460;24.060;2022-08-19T12:37:58;100431.91;;;30.17;49.00
61757;BME280;57225;61.460;24.060;2022-08-19T12:40:46;100432.00;;;30.06;49.59
61757;BME280;57225;61.460;24.060;2022-08-19T12:43:30;100438.06;;;29.96;50.05
61757;BME280;57225;61.460;24.060;2022-08-19T12:46:15;100429.19;;;29.89;49.54
61757;BME280;57225;61.460;24.060;2022-08-19T12:48:59;100426.63;;;29.74;50.23
61757;BME280;57225;61.460;24.060;2022-08-19T12:51:43;100422.75;;;29.66;50.23
61757;BME280;57225;61.460;24.060;2022-08-19T12:54:28;100422.53;;;29.58;50.02
61757;BME280;57225;61.460;24.060;2022-08-19T12:57:14;100425.09;;;29.68;50.50
61757;BME280;57225;61.460;24.060;2022-08-19T13:00:09;100424.88;;;29.60;50.98
61757;BME280;57225;61.460;24.060;2022-08-19T13:02:57;100424.06;;;29.59;50.19
61757;BME280;57225;61.460;24.060;2022-08-19T13:05:41;100425.44;;;29.42;50.74
61757;BME280;57225;61.460;24.060;2022-08-19T13:08:25;100426.00;;;29.35;51.36
61757;BME280;57225;61.460;24.060;2022-08-19T13:11:18;100435.94;;;29.34;51.74
61757;BME280;57225;61.460;24.060;2022-08-19T13:14:04;100430.72;;;29.15;52.19
61757;BME280;57225;61.460;24.060;2022-08-19T13:16:49;100427.09;;;29.04;52.89
61757;BME280;57225;61.460;24.060;2022-08-19T13:19:36;100422.13;;;28.99;52.21
61757;BME280;57225;61.460;24.060;2022-08-19T13:22:20;100426.84;;;28.91;53.09
61757;BME280;57225;61.460;24.060;2022-08-19T13:25:06;100431.78;;;28.90;52.20
61757;BME280;57225;61.460;24.060;2022-08-19T13:27:50;100417.44;;;28.90;52.75
61757;BME280;57225;61.460;24.060;2022-08-19T13:30:35;100425.53;;;28.97;52.87
61757;BME280;57225;61.460;24.060;2022-08-19T13:33:38;100419.25;;;28.99;52.62
61757;BME280;57225;61.460;24.060;2022-08-19T13:36:22;100415.63;;;28.87;52.86
61757;BME280;57225;61.460;24.060;2022-08-19T13:39:07;100414.56;;;28.68;53.20
61757;BME280;57225;61.460;24.060;2022-08-19T13:41:53;100406.22;;;28.59;53.92
61757;BME280;57225;61.460;24.060;2022-08-19T13:44:37;100399.97;;;28.55;54.70
61757;BME280;57225;61.460;24.060;2022-08-19T13:47:21;100396.03;;;28.47;54.53
61757;BME280;57225;61.460;24.060;2022-08-19T13:50:06;100403.06;;;28.34;55.13
61757;BME280;57225;61.460;24.060;2022-08-19T13:52:52;100406.22;;;28.25;55.18
61757;BME280;57225;61.460;24.060;2022-08-19T13:55:38;100414.72;;;28.03;55.39
61757;BME280;57225;61.460;24.060;2022-08-19T13:58:23;100427.16;;;27.78;56.51
61757;BME280;57225;61.460;24.060;2022-08-19T14:01:07;100409.13;;;27.60;55.92
61757;BME280;57225;61.460;24.060;2022-08-19T14:03:52;100410.97;;;27.21;55.36
61757;BME280;57225;61.460;24.060;2022-08-19T14:06:36;100405.16;;;27.04;55.88
61757;BME280;57225;61.460;24.060;2022-08-19T14:09:21;100398.09;;;27.00;56.57
61757;BME280;57225;61.460;24.060;2022-08-19T14:12:06;100417.59;;;27.01;56.68
61757;BME280;57225;61.460;24.060;2022-08-19T14:14:50;100418.47;;;27.13;57.04
61757;BME280;57225;61.460;24.060;2022-08-19T14:17:34;100425.50;;;27.12;57.25